Strona główna
METAR-TAF:

METAR-TAF

Lotnisko :

Hettinger Municipal Airport

Hettinger, Dakota Północna, Stany Zjednoczone

Szerokość geograficzna: 46-00-38N, Długość geograficzna: 102-38-59W, wysokość: 824 m

Aktualna obserwacja pogody

Raport powstał 27 minut temu, godzina 00:53 UTC
Wiatr 3 kt od południowy wschód
Temperatura 6°C
Wilgotność 52%
Ciśnienie 1012 hPa
Widzialność: 16.1 km
Mało chmury na wysokości 6000 ft
Rozproszone chmury na wysokości 8500 ft

METAR: KHEI 050053Z AUTO 14003KT 10SM FEW060 SCT085 06/M03 A2987 RMK AO2 SLP145 T00611033

czas: 19:20 (01:20 UTC)


TAF: brakujący

Obserwacja i prognoza pogody dla ponad 4000 lotnisk (raport METAR i TAF).

Dostępne stacje oznaczono żółtymi i czerwonymi punktami na mapie.

Najedź kursorem aby zobaczyć nazwę stacji.

Kliknij aby zobaczyć obserwacje i prognozy pogody.

Aby zmienić mapę: kliknij na zielony przycisk z czarnym krzyżykiem, aby powiększyć; na zielony przycisk z myślnikiem, aby pomniejszyć; na zielone strzałki, aby przejść do map sąsiednich.


METAR-TAF: